Text Box: All records at near 07:00 local time
Kleivo 1 weather for May 2011
Updated 21.08.2011 20:22:23 Month no. 54
Obs.
Da.
Temp. Dew Point Precip. Wind
Speed
Wind gusts Cloud cover Press. Humidity Wind dir. Sunny OPT
01.05.2011 10,4 3,4 0,0 1,6 1,6 10 1002,4 62,0 135,0   90,0 %
02.05.2011 7,9 2,9 2,5 4,8 20,9 1 1005,4 71,0 135,0   62,5 %
03.05.2011 4,4 2,6 3,6 0,0 0,0 9 999,7 88,0     77,5 %
04.05.2011 5,3 2,3 1,0 4,8 3,2 4 1002,0 81,0 135,0   67,5 %
05.05.2011 7,0 4,3 0,0   0,0 9 1002,4 0,0      
06.05.2011 6,4 3,8 0,5   0,0 0 1001,0 0,0      
07.05.2011 11,4 4,8 0,5 22,5 25,7 0 1003,0 64,0 135,0   50,0 %
08.05.2011 16,2 -1,4 0,5 25,7 32,2 10 1005,4 30,0 112,5   77,5 %
09.05.2011 16,4 2,4 0,5 27,4 27,4 10 1006,1 39,0 112,5   77,5 %
10.05.2011 12,1 9,7 3,0 8,0 9,7 1 1005,1 85,0 112,5   60,0 %
11.05.2011 10,9 7,4 0,5 12,9 12,9 10 1002,4 79,0 135,0   82,5 %
12.05.2011 9,7 7,7 0,0 0,0 0,0 2 993,9 87,0     67,5 %
13.05.2011 9,3 5,4 5,6 11,3 11,3 2 989,5 77,0 112,5   57,5 %
14.05.2011 7,2 4,6 9,7 8,0 8,0 8 991,9 84,0 135,0   67,5 %
15.05.2011 7,8 5,9 15,7 4,8 4,8 2 988,5 88,0 270,0   52,5 %
16.05.2011 7,3 5,4 0,0 0,0 0,0 8 990,9 88,0     80,0 %
17.05.2011 8,1 6,2 0,5 0,0 0,0 1 986,1 88,0     65,0 %
18.05.2011 7,4 5,1 9,7 4,8 4,8 0 987,1 85,0 180,0   50,0 %
19.05.2011 9,3 6,7 0,5 3,2 3,2 2 986,1 84,0 157,5   67,5 %
20.05.2011 9,8 7,2 2,5 19,3 20,9 1 1013,2 84,0 157,5   52,5 %
21.05.2011 8,2 5,8 0,5 22,5 32,2 3 1012,2 85,0 270,0   55,0 %
22.05.2011 12,1 7,2 0,0 29,0 40,2 2 1006,1 72,0 180,0   52,5 %
23.05.2011 9,6 6,5 5,6 27,4 33,8 7 1007,8 81,0 202,5   60,0 %
24.05.2011 8,1 5,7 4,6 28,8 43,6 0 991,9 85,0 225,0   42,5 %
25.05.2011 7,7 5,4 4,6 4,8 4,8 0 1010,5 85,0 270,0   57,5 %
26.05.2011 7,4 4,7 5,1 12,9 19,3 0 1013,2 83,0 180,0   50,0 %
27.05.2011 8,4 6,0 6,6 0,0 0,0 0 1000,0 85,0     57,5 %
28.05.2011 7,8 5,1 6,6 16,1 25,7 1 1000,3 83,0 157,5   50,0 %
29.05.2011 7,9 5,8 6,6 12,9 12,9 3 975,3 87,0 180,0   57,5 %
30.05.2011 7,8 5,9 7,6 0,0 0,0 0 987,8 88,0     57,5 %
31.05.2011 7,1 5,2 6,1 0,0 0,0 1 989,8 88,0     57,5 %
Avrg/Sum 8,9 5,2 110,7 10,8 12,9 3,5 998,6 73,7 167,7   62,2 %